KABI/ABI METAR and TAF weather

Enter ICAO airport designator
Station Type Date Time Source
KABI METAR 2021/04/18 02:52 UTC NOAA

KABI 180252Z 03005KT 10SM CLR 10/03 A3016 RMK AO2 SLP210 T01000033 53014


Station Type Date Time Source
KABI Decoded METAR 2021/04/18 02:52 UTC NOAA

ABILENE REGIONAL AIRPORT, TX, United States (KABI) 32-25N 099-41W 548M
Apr 17, 2021 - 10:52 PM EDT / 2021.04.18 0252 UTC
Wind: from the NNE (030 degrees) at 6 MPH (5 KT):0
Visibility: 10 mile(s):0
Sky conditions: clear
Temperature: 50.0 F (10.0 C)
Dew Point: 37.9 F (3.3 C)
Relative Humidity: 63%
Pressure (altimeter): 30.16 in. Hg (1021 hPa)
Pressure tendency: 0.04 inches (1.4 hPa) higher than three hours ago
ob: KABI 180252Z 03005KT 10SM CLR 10/03 A3016 RMK AO2 SLP210 T01000033 53014
cycle: 3

Station Type Date Time Source
KABI TAF 2021/04/17 18:27 UTC NOAA

TAF KABI 171725Z 1718/1818 36013G21KT P6SM BKN080
TEMPO 1718/1721 6SM -SHRA BR OVC025
FM172100 36013KT P6SM VCSH OVC050
FM180000 01008KT P6SM OVC080

Example: see airport list